createdAt,value
2022-09-17T00:01:42.737Z,99660.47
2022-09-17T00:06:39.170Z,99656.69
2022-09-17T00:11:39.308Z,99651.38
2022-09-17T00:16:41.754Z,99661.06
2022-09-17T00:21:38.184Z,99673.50
2022-09-17T00:26:35.194Z,99660.06
2022-09-17T00:31:32.649Z,99665.41
2022-09-17T00:36:29.329Z,99662.63
2022-09-17T00:41:29.597Z,99665.53
2022-09-17T00:46:33.473Z,99664.56
2022-09-17T00:51:47.762Z,99666.38
2022-09-17T00:56:44.368Z,99670.72
2022-09-17T01:01:40.840Z,99672.53
2022-09-17T01:06:52.100Z,99682.47
2022-09-17T01:12:23.199Z,99683.28
2022-09-17T01:17:29.967Z,99693.91
2022-09-17T01:22:52.059Z,99692.25
2022-09-17T01:28:01.982Z,99695.63
2022-09-17T01:33:12.499Z,99699.50
2022-09-17T01:38:32.874Z,99692.53
2022-09-17T01:43:48.422Z,99691.53
2022-09-17T01:48:49.656Z,99696.16
2022-09-17T01:53:53.355Z,99713.22
2022-09-17T01:58:56.532Z,99703.00
2022-09-17T02:04:49.057Z,99708.44
2022-09-17T02:09:53.554Z,99707.72
2022-09-17T02:14:53.998Z,99702.56
2022-09-17T02:19:50.813Z,99707.16
2022-09-17T02:25:00.618Z,99705.03
2022-09-17T02:29:56.994Z,99707.56
2022-09-17T02:34:53.505Z,99714.81
2022-09-17T02:39:49.962Z,99716.78
2022-09-17T02:44:59.218Z,99707.50
2022-09-17T02:50:14.806Z,99725.94
2022-09-17T02:55:20.682Z,99724.78
2022-09-17T03:00:20.805Z,99720.69
2022-09-17T03:05:20.237Z,99724.13
2022-09-17T03:10:17.235Z,99723.81
2022-09-17T03:15:13.689Z,99711.03
2022-09-17T03:20:10.192Z,99705.81
2022-09-17T03:25:07.034Z,99707.69
2022-09-17T03:30:04.624Z,99707.03
2022-09-17T03:35:01.023Z,99706.09
2022-09-17T03:39:57.365Z,99720.13
2022-09-17T03:44:53.708Z,99720.91
2022-09-17T03:49:50.104Z,99727.66
2022-09-17T03:54:46.419Z,99731.72
2022-09-17T03:59:42.734Z,99729.72
2022-09-17T04:04:39.068Z,99753.22
2022-09-17T04:09:35.552Z,99746.59
2022-09-17T04:14:31.961Z,99751.09
2022-09-17T04:19:28.446Z,99749.41
2022-09-17T04:24:24.789Z,99753.00
2022-09-17T04:29:21.154Z,99755.16
2022-09-17T04:34:17.472Z,99762.88
2022-09-17T04:39:13.806Z,99764.25
2022-09-17T04:44:10.139Z,99769.78
2022-09-17T04:49:06.625Z,99768.34
2022-09-17T04:54:03.018Z,99763.88
2022-09-17T04:58:59.386Z,99771.06
2022-09-17T05:03:55.709Z,99769.41
2022-09-17T05:08:51.999Z,99776.66
2022-09-17T05:13:48.408Z,99774.25
2022-09-17T05:18:45.186Z,99782.91
2022-09-17T05:23:41.583Z,99790.75
2022-09-17T05:28:37.966Z,99788.66
2022-09-17T05:33:34.938Z,99793.84
2022-09-17T05:38:31.321Z,99795.31
2022-09-17T05:43:27.814Z,99791.09
2022-09-17T05:48:24.244Z,99801.44
2022-09-17T05:53:21.878Z,99805.81
2022-09-17T05:58:19.645Z,99804.50
2022-09-17T06:03:19.077Z,99807.94
2022-09-17T06:08:15.532Z,99811.53
2022-09-17T06:13:11.929Z,99811.81
2022-09-17T06:18:08.280Z,99812.59
2022-09-17T06:23:04.720Z,99818.72
2022-09-17T06:28:03.006Z,99816.41
2022-09-17T06:33:00.230Z,99811.22
2022-09-17T06:37:56.638Z,99805.84
2022-09-17T06:42:58.039Z,99802.56
2022-09-17T06:47:54.586Z,99811.09
2022-09-17T06:52:52.750Z,99800.31
2022-09-17T06:57:49.326Z,99806.94
2022-09-17T07:02:55.434Z,99805.34
2022-09-17T07:07:52.638Z,99800.88
2022-09-17T07:12:50.133Z,99810.84
2022-09-17T07:17:46.879Z,99796.38
2022-09-17T07:22:43.635Z,99792.63
2022-09-17T07:27:40.155Z,99797.09
2022-09-17T07:32:36.500Z,99790.19
2022-09-17T07:37:32.844Z,99785.75
2022-09-17T07:42:29.252Z,99776.97
2022-09-17T07:47:25.643Z,99783.56
2022-09-17T07:52:22.018Z,99784.00
2022-09-17T07:57:18.324Z,99780.66
2022-09-17T08:02:14.847Z,99771.16
2022-09-17T08:07:13.073Z,99779.59
2022-09-17T08:12:09.464Z,99783.78
2022-09-17T08:17:08.270Z,99798.09
2022-09-17T08:22:04.630Z,99792.63
2022-09-17T08:27:00.962Z,99785.47
2022-09-17T08:31:57.280Z,99788.84
2022-09-17T08:36:53.641Z,99794.69
2022-09-17T08:42:11.545Z,99791.03
2022-09-17T08:47:16.148Z,99791.78
2022-09-17T08:52:28.549Z,99800.44
2022-09-17T08:57:36.965Z,99800.69
2022-09-17T09:02:48.901Z,99810.41
2022-09-17T09:07:52.047Z,99816.44
2022-09-17T09:12:51.282Z,99807.53
2022-09-17T09:17:49.305Z,99805.69
2022-09-17T09:22:48.859Z,99814.97
2022-09-17T09:27:54.597Z,99805.38
2022-09-17T09:33:11.817Z,99812.66
2022-09-17T09:38:40.709Z,99816.91
2022-09-17T09:44:05.013Z,99817.53
2022-09-17T09:49:19.837Z,99828.16
2022-09-17T09:54:42.577Z,99820.75
2022-09-17T09:59:41.254Z,99823.72
2022-09-17T10:04:37.661Z,99828.00
2022-09-17T10:09:37.055Z,99817.63
2022-09-17T10:14:36.620Z,99800.56
2022-09-17T10:19:33.007Z,99810.63
2022-09-17T10:24:33.277Z,99813.44
2022-09-17T10:29:30.173Z,99798.84
2022-09-17T10:34:30.129Z,99809.78
2022-09-17T10:39:34.269Z,99804.97
2022-09-17T10:44:36.719Z,99801.78
2022-09-17T10:49:47.508Z,99795.00
2022-09-17T10:55:14.753Z,99781.25
2022-09-17T11:00:18.395Z,99791.72
2022-09-17T11:05:29.768Z,99827.53
2022-09-17T11:10:41.933Z,99772.97
2022-09-17T11:15:59.711Z,99758.72
2022-09-17T11:20:58.915Z,99744.09
2022-09-17T11:26:13.878Z,99745.38
2022-09-17T11:31:39.595Z,99755.31
2022-09-17T11:36:57.062Z,99760.22
2022-09-17T11:41:56.264Z,99769.50
2022-09-17T11:47:10.116Z,99769.56
2022-09-17T11:52:14.794Z,99774.22
2022-09-17T11:57:16.847Z,99746.81
2022-09-17T12:02:39.478Z,99766.00
2022-09-17T12:07:45.694Z,99765.22
2022-09-17T12:12:52.554Z,99750.53
2022-09-17T12:18:30.705Z,99755.72
2022-09-17T12:23:59.146Z,99756.88
2022-09-17T12:29:08.373Z,99743.78
2022-09-17T12:34:26.111Z,99749.09
2022-09-17T12:39:38.812Z,99746.03
2022-09-17T12:44:40.965Z,99745.56
2022-09-17T12:50:08.542Z,99760.66
2022-09-17T12:55:20.153Z,99745.84
2022-09-17T13:00:17.103Z,99758.28
2022-09-17T13:05:35.819Z,99757.94
2022-09-17T13:10:47.236Z,99741.06
2022-09-17T13:15:52.819Z,99752.56
2022-09-17T13:20:55.175Z,99740.00
2022-09-17T13:25:55.254Z,99735.13
2022-09-17T13:31:00.194Z,99730.91
2022-09-17T13:35:56.886Z,99734.47
2022-09-17T13:41:21.289Z,99787.28
2022-09-17T13:46:23.525Z,99745.78
2022-09-17T13:51:32.045Z,99724.94
2022-09-17T13:56:31.795Z,99730.66
2022-09-17T14:01:50.988Z,99724.81
2022-09-17T14:06:51.436Z,99721.63
2022-09-17T14:11:47.774Z,99720.38
2022-09-17T14:16:45.924Z,99729.59
2022-09-17T14:21:57.200Z,99734.13
2022-09-17T14:27:00.309Z,99722.56
2022-09-17T14:31:58.150Z,99727.16
2022-09-17T14:36:55.947Z,99727.69
2022-09-17T14:41:54.626Z,99729.03
2022-09-17T14:46:56.767Z,99730.44
2022-09-17T14:51:54.994Z,99730.19
2022-09-17T14:57:23.598Z,99728.44
2022-09-17T15:02:38.340Z,99729.66
2022-09-17T15:07:34.726Z,99727.03
2022-09-17T15:12:31.198Z,99725.44
2022-09-17T15:17:27.783Z,99722.66
2022-09-17T15:22:29.518Z,99725.00
2022-09-17T15:27:30.779Z,99719.38
2022-09-17T15:32:27.690Z,99719.22
2022-09-17T15:37:28.198Z,99719.31
2022-09-17T15:42:29.660Z,99727.53
2022-09-17T15:47:38.796Z,99732.25
2022-09-17T15:52:35.246Z,99721.19
2022-09-17T15:57:32.674Z,99715.84
2022-09-17T16:02:31.494Z,99729.91
2022-09-17T16:07:30.313Z,99731.41
2022-09-17T16:12:28.969Z,99734.75
2022-09-17T16:17:28.147Z,99748.88
2022-09-17T16:22:26.428Z,99762.63
2022-09-17T16:27:25.027Z,99770.00
2022-09-17T16:32:21.446Z,99771.66
2022-09-17T16:37:17.912Z,99778.94
2022-09-17T16:42:14.376Z,99783.34
2022-09-17T16:47:10.680Z,99778.31
2022-09-17T16:52:07.051Z,99792.47
2022-09-17T16:57:03.433Z,99789.69
2022-09-17T17:02:00.056Z,99787.78
2022-09-17T17:06:56.377Z,99787.47
2022-09-17T17:11:52.660Z,99795.00
2022-09-17T17:16:48.980Z,99789.97
2022-09-17T17:21:47.331Z,99780.72
2022-09-17T17:26:43.669Z,99778.34
2022-09-17T17:31:40.345Z,99780.53
2022-09-17T17:36:36.697Z,99783.75
2022-09-17T17:41:33.041Z,99790.72
2022-09-17T17:46:29.450Z,99797.66
2022-09-17T17:51:27.156Z,99806.97
2022-09-17T17:56:23.545Z,99801.78
2022-09-17T18:01:22.632Z,99823.94
2022-09-17T18:06:18.951Z,99826.59
2022-09-17T18:11:15.296Z,99831.63
2022-09-17T18:16:14.029Z,99829.38
2022-09-17T18:21:15.927Z,99838.16
2022-09-17T18:26:14.952Z,99857.31
2022-09-17T18:31:19.792Z,99858.38
2022-09-17T18:36:16.196Z,99858.81
2022-09-17T18:41:13.487Z,99876.53
2022-09-17T18:46:09.863Z,99874.69
2022-09-17T18:51:12.319Z,99883.13
2022-09-17T18:56:16.010Z,99880.13
2022-09-17T19:01:12.494Z,99890.56
2022-09-17T19:06:11.204Z,99887.91
2022-09-17T19:11:07.909Z,99890.56
2022-09-17T19:16:05.685Z,99892.50
2022-09-17T19:21:07.943Z,99900.00
2022-09-17T19:26:06.702Z,99909.47
2022-09-17T19:31:07.875Z,99909.00
2022-09-17T19:36:09.401Z,99923.72
2022-09-17T19:41:09.948Z,99923.09
2022-09-17T19:46:11.628Z,99925.50
2022-09-17T19:51:08.012Z,99936.22
2022-09-17T19:56:04.677Z,99930.13
2022-09-17T20:01:01.045Z,99931.81
2022-09-17T20:06:02.739Z,99935.72
2022-09-17T20:11:07.329Z,99933.06
2022-09-17T20:16:05.312Z,99934.63
2022-09-17T20:21:16.641Z,99929.84
2022-09-17T20:26:14.028Z,99920.69
2022-09-17T20:31:13.428Z,99911.66
2022-09-17T20:36:16.400Z,99914.94
2022-09-17T20:41:14.007Z,99924.13
2022-09-17T20:46:12.276Z,99922.69
2022-09-17T20:51:12.917Z,99926.81
2022-09-17T20:56:15.236Z,99922.25
2022-09-17T21:01:15.339Z,99917.69
2022-09-17T21:06:36.044Z,99928.91
2022-09-17T21:11:32.710Z,99930.81
2022-09-17T21:16:29.638Z,99936.50
2022-09-17T21:21:26.152Z,99926.72
2022-09-17T21:26:24.140Z,99930.59
2022-09-17T21:31:23.115Z,99942.78
2022-09-17T21:36:23.812Z,99943.50
2022-09-17T21:41:21.291Z,99941.53
2022-09-17T21:46:22.717Z,99935.88
2022-09-17T21:51:22.118Z,99940.84
2022-09-17T21:56:19.795Z,99940.00
2022-09-17T22:01:19.579Z,99933.13
2022-09-17T22:06:18.970Z,99948.56
2022-09-17T22:11:18.101Z,99939.28
2022-09-17T22:16:14.452Z,99945.56
2022-09-17T22:21:15.977Z,99941.94
2022-09-17T22:26:12.310Z,99946.66
2022-09-17T22:31:11.750Z,99940.34
2022-09-17T22:36:13.829Z,99935.78
2022-09-17T22:41:15.505Z,99955.56
2022-09-17T22:46:23.711Z,99956.53
2022-09-17T22:51:20.377Z,99947.06
2022-09-17T22:56:19.620Z,99949.03
2022-09-17T23:01:18.442Z,99943.47
2022-09-17T23:06:21.692Z,99932.41
2022-09-17T23:11:26.248Z,99929.53
2022-09-17T23:16:22.747Z,99933.13
2022-09-17T23:21:19.933Z,99935.66
2022-09-17T23:26:24.322Z,99940.94
2022-09-17T23:31:28.314Z,99929.47
2022-09-17T23:36:27.423Z,99917.63
2022-09-17T23:41:30.489Z,99918.69
2022-09-17T23:46:29.194Z,99930.88
2022-09-17T23:51:27.741Z,99932.78
2022-09-17T23:56:27.886Z,99934.34
